Decoded Metar for KSVE (SUSANVILLE MUNI in CA, USA) (IATA:SVE) | Meteo·Mobile Aviation Weather
aviador You're here:

KSVE Decoded Metar

SUSANVILLE MUNI in CA, USA
Report Time2018-12-15 17:55:00
UTC Time2018-12-15 18:05:33
Flight Rules vfr VFR
Wind250° at 07 kt
W.Decomp.*RWY 25: 6.7 kt HW 2 kt LCW
RWY 29: 3.8 kt HW 5.9 kt LCW
W.Rank250° ranks 8
Current wind is below 250° avg. (7.7)
Visibility9999 m
Phenomena:N/A
Clouds:Few 037 Hf
Expected CloudBase > 2,400 ft AGL from Temp-Dew spread
CeilingNone
Temp07°C (ISA 0)
Dew Point01°C (66% RH)
AAT2.7°C
QNH1020 hPa
Density Alt4,035 ft
Elevation4,144 ft
Report Wrong Elevation
Raw Report
KSVE 151755Z AUTO 25007KT 10SM FEW037 07/01 A3012 RMK AO2=

Extra information for KSVE:More info

Airport Information Weather charts Add Link Nearby Venues Social comments

AIRNAV info for KSVE